Time;durP1;ratioP1;P1;durP2;ratioP2;P2;SDS_P1;SDS_P2;PMS_P1;PMS_P2;Temp;Humidity;BMP_temperature;BMP_pressure;BME280_temperature;BME280_humidity;BME280_pressure;Samples;Min_cycle;Max_cycle;Signal;HPM_P1;HPM_P2
2023/04/02 00:00:12;;;;;;;13.63;9.40;;;;;;;;;;4986269;28;20054;-53
2023/04/02 00:02:48;;;;;;;15.68;9.02;;;;;;;;;;4986090;28;20138;-53
2023/04/02 00:05:20;;;;;;;;;;;;;;;;;;4984710;28;20055;-54
2023/04/02 00:07:51;;;;;;;10.57;8.60;;;;;;;;;;4981673;28;45294;-54
2023/04/02 00:10:27;;;;;;;14.35;9.40;;;;;;;;;;4986009;28;20089;-52
2023/04/02 00:13:08;;;;;;;14.32;8.85;;;;;;;;;;4986127;28;20065;-54
2023/04/02 00:15:39;;;;;;;13.10;9.35;;;;;;;;;;4978715;28;20878;-49
2023/04/02 00:18:06;;;;;;;14.70;9.50;;;;;;;;;;4985761;28;20089;-55
2023/04/02 00:20:35;;;;;;;16.08;9.23;;;;;;;;;;4985910;28;20058;-54
2023/04/02 00:23:02;;;;;;;15.98;9.65;;;;;;;;;;4985681;28;20086;-54
2023/04/02 00:25:29;;;;;;;13.57;9.45;;;;;;;;;;4984999;28;20054;-55
2023/04/02 00:27:56;;;;;;;14.77;10.02;;;;;;;;;;4985799;28;20054;-54
2023/04/02 00:30:22;;;;;;;16.77;10.00;;;;;;;;;;4985463;28;20094;-54
2023/04/02 00:32:50;;;;;;;17.15;10.43;;;;;;;;;;4984269;28;20055;-56
2023/04/02 00:35:23;;;;;;;15.20;9.15;;;;;;;;;;4983809;28;20050;-54
2023/04/02 00:37:50;;;;;;;15.27;9.65;;;;;;;;;;4974212;28;20050;-53
2023/04/02 00:40:22;;;;;;;18.73;10.55;;;;;;;;;;4985665;28;20047;-54
2023/04/02 00:42:49;;;;;;;16.08;9.65;;;;;;;;;;4989054;28;20263;-54
2023/04/02 00:45:21;;;;;;;17.23;9.63;;;;;;;;;;5023639;28;20060;-55
2023/04/02 00:47:47;;;;;;;15.80;9.75;;;;;;;;;;5024985;28;20896;-54
2023/04/02 00:50:19;;;;;;;17.95;9.32;;;;;;;;;;5024864;28;20137;-51
2023/04/02 00:52:48;;;;;;;17.63;9.85;;;;;;;;;;5024533;28;20050;-51
2023/04/02 00:55:23;;;;;;;17.13;8.95;;;;;;;;;;5024346;28;20148;-51
2023/04/02 00:57:50;;;;;;;14.60;9.07;;;;;;;;;;5024242;28;20074;-53
2023/04/02 01:00:21;;;;;;;16.40;8.55;;;;;;;;;;5023002;28;20054;-52
2023/04/02 01:03:10;;;;;;;20.13;9.60;;;;;;;;;;5024400;28;20443;-54
2023/04/02 01:05:36;;;;;;;16.17;9.73;;;;;;;;;;5022519;28;20473;-50
2023/04/02 01:08:21;;;;;;;13.40;9.35;;;;;;;;;;5021518;28;20113;-51
2023/04/02 01:10:56;;;;;;;17.40;9.37;;;;;;;;;;5024499;28;20108;-50
2023/04/02 01:13:28;;;;;;;18.10;9.23;;;;;;;;;;5024216;28;20058;-50
2023/04/02 01:16:00;;;;;;;12.27;8.93;;;;;;;;;;5024356;28;20729;-55
2023/04/02 01:18:36;;;;;;;11.30;8.07;;;;;;;;;;5023998;28;20424;-50
2023/04/02 01:21:03;;;;;;;13.45;8.40;;;;;;;;;;5024334;28;20113;-53
2023/04/02 01:23:48;;;;;;;14.70;9.32;;;;;;;;;;5006936;28;20057;-52
2023/04/02 01:26:33;;;;;;;12.75;8.38;;;;;;;;;;5022092;28;20054;-52
2023/04/02 01:29:02;;;;;;;11.50;8.30;;;;;;;;;;5023641;28;20492;-51
2023/04/02 01:31:29;;;;;;;13.40;8.25;;;;;;;;;;5023575;28;20054;-52
2023/04/02 01:33:56;;;;;;;14.65;8.18;;;;;;;;;;5023653;28;20046;-53
2023/04/02 01:36:35;;;;;;;12.38;8.80;;;;;;;;;;5024971;28;20060;-53
2023/04/02 01:39:14;;;;;;;15.65;8.90;;;;;;;;;;5023358;28;20056;-54
2023/04/02 01:41:49;;;;;;;15.63;8.65;;;;;;;;;;5022415;28;20057;-54
2023/04/02 01:44:28;;;;;;;12.90;7.88;;;;;;;;;;5023814;28;20447;-55
2023/04/02 01:46:57;;;;;;;13.60;7.85;;;;;;;;;;5024575;28;20077;-49
2023/04/02 01:49:24;;;;;;;12.70;8.30;;;;;;;;;;5023357;28;20061;-55
2023/04/02 01:51:53;;;;;;;14.73;8.30;;;;;;;;;;5023228;28;20109;-54
2023/04/02 01:54:20;;;;;;;13.02;8.05;;;;;;;;;;5023896;28;20200;-54
2023/04/02 01:56:47;;;;;;;15.82;8.32;;;;;;;;;;5022130;28;20112;-53
2023/04/02 01:59:15;;;;;;;14.13;8.60;;;;;;;;;;5023721;28;20061;-55
2023/04/02 02:01:48;;;;;;;13.07;7.97;;;;;;;;;;5021958;28;20058;-53
2023/04/02 02:04:15;;;;;;;12.75;8.70;;;;;;;;;;5023659;28;20053;-55
2023/04/02 02:06:42;;;;;;;14.23;8.13;;;;;;;;;;5022330;28;20554;-53
2023/04/02 02:09:11;;;;;;;11.73;8.05;;;;;;;;;;5023622;28;20057;-55
2023/04/02 02:11:38;;;;;;;10.52;7.57;;;;;;;;;;5021646;28;20145;-53
2023/04/02 02:14:10;;;;;;;9.50;6.70;;;;;;;;;;5023667;28;20057;-55
2023/04/02 02:16:40;;;;;;;14.40;7.53;;;;;;;;;;5024668;28;20046;-54
2023/04/02 02:19:16;;;;;;;12.07;7.88;;;;;;;;;;5012016;28;20053;-52
2023/04/02 02:21:49;;;;;;;14.30;8.20;;;;;;;;;;5023344;28;20448;-52
2023/04/02 02:24:18;;;;;;;15.30;7.50;;;;;;;;;;5024089;28;20123;-54
2023/04/02 02:26:47;;;;;;;12.18;7.53;;;;;;;;;;5023313;28;20054;-54
2023/04/02 02:29:15;;;;;;;10.90;7.25;;;;;;;;;;5022618;28;20678;-54
2023/04/02 02:31:43;;;;;;;14.77;7.78;;;;;;;;;;5022130;28;20057;-53
2023/04/02 02:34:15;;;;;;;10.43;6.15;;;;;;;;;;5023449;28;20540;-56
2023/04/02 02:36:51;;;;;;;9.45;7.20;;;;;;;;;;5022553;28;20140;-54
2023/04/02 02:39:21;;;;;;;15.02;6.78;;;;;;;;;;5026071;28;20060;-55
2023/04/02 02:41:47;;;;;;;12.18;7.70;;;;;;;;;;5024951;28;20058;-53
2023/04/02 02:44:23;;;;;;;11.13;7.85;;;;;;;;;;5025769;28;20154;-53
2023/04/02 02:47:01;;;;;;;10.32;6.68;;;;;;;;;;5027328;28;20088;-53
2023/04/02 02:49:35;;;;;;;10.38;7.03;;;;;;;;;;5000763;28;20424;-54
2023/04/02 02:52:07;;;;;;;11.60;7.65;;;;;;;;;;5026865;28;20061;-55
2023/04/02 02:54:36;;;;;;;11.65;6.68;;;;;;;;;;5009190;28;20050;-52
2023/04/02 02:57:04;;;;;;;11.73;7.25;;;;;;;;;;5026963;28;20054;-52
2023/04/02 02:59:31;;;;;;;16.58;8.25;;;;;;;;;;5025034;28;20061;-52
2023/04/02 03:01:58;;;;;;;8.65;6.70;;;;;;;;;;5015666;28;20053;-54
2023/04/02 03:04:24;;;;;;;9.02;6.78;;;;;;;;;;5025669;28;20152;-53
2023/04/02 03:06:51;;;;;;;9.88;7.22;;;;;;;;;;5026890;28;20046;-55
2023/04/02 03:09:30;;;;;;;13.05;7.50;;;;;;;;;;5023401;28;20062;-53
2023/04/02 03:11:56;;;;;;;11.10;7.35;;;;;;;;;;5026638;28;20042;-54
2023/04/02 03:14:43;;;;;;;10.98;7.40;;;;;;;;;;5026802;28;20050;-56
2023/04/02 03:17:15;;;;;;;11.82;7.53;;;;;;;;;;5025694;28;20058;-54
2023/04/02 03:19:44;;;;;;;13.00;7.55;;;;;;;;;;5025624;28;20072;-55
2023/04/02 03:22:14;;;;;;;14.93;7.50;;;;;;;;;;5026122;28;20061;-54
2023/04/02 03:24:56;;;;;;;12.07;7.43;;;;;;;;;;5025646;28;20061;-53
2023/04/02 03:27:34;;;;;;;9.40;6.50;;;;;;;;;;5026235;28;20054;-55
2023/04/02 03:30:13;;;;;;;11.07;6.68;;;;;;;;;;5025813;28;20761;-52
2023/04/02 03:32:41;;;;;;;8.63;6.55;;;;;;;;;;5023955;28;20412;-55
2023/04/02 03:35:25;;;;;;;9.45;7.13;;;;;;;;;;5025139;28;20051;-54
2023/04/02 03:37:57;;;;;;;10.52;7.28;;;;;;;;;;5024832;28;20426;-55
2023/04/02 03:40:25;;;;;;;8.48;7.03;;;;;;;;;;5026845;28;20054;-54
2023/04/02 03:42:54;;;;;;;11.90;6.88;;;;;;;;;;5007284;28;20469;-53
2023/04/02 03:45:23;;;;;;;10.88;7.65;;;;;;;;;;5027035;28;20045;-55
2023/04/02 03:47:59;;;;;;;9.18;7.25;;;;;;;;;;5025246;28;20584;-55
2023/04/02 03:50:34;;;;;;;10.23;7.03;;;;;;;;;;5024986;28;20062;-53
2023/04/02 03:53:02;;;;;;;9.90;6.80;;;;;;;;;;5023463;28;20054;-53
2023/04/02 03:55:29;;;;;;;9.15;7.18;;;;;;;;;;5026334;28;20535;-56
2023/04/02 03:58:15;;;;;;;10.88;7.15;;;;;;;;;;5025835;28;20091;-54
2023/04/02 04:00:47;;;;;;;13.43;6.88;;;;;;;;;;5011558;28;21330;-53
2023/04/02 04:03:25;;;;;;;14.48;7.18;;;;;;;;;;5022538;28;20057;-54
2023/04/02 04:06:00;;;;;;;8.93;7.25;;;;;;;;;;5020982;28;20050;-51
2023/04/02 04:08:31;;;;;;;8.35;6.43;;;;;;;;;;5025272;28;20046;-49
2023/04/02 04:11:00;;;;;;;11.30;6.68;;;;;;;;;;5024990;28;20092;-49
2023/04/02 04:13:35;;;;;;;9.32;6.47;;;;;;;;;;5026089;28;20085;-51
2023/04/02 04:16:05;;;;;;;9.43;6.20;;;;;;;;;;5024662;28;20054;-54
2023/04/02 04:18:36;;;;;;;9.70;6.38;;;;;;;;;;5022769;28;20050;-50
2023/04/02 04:21:14;;;;;;;7.97;6.30;;;;;;;;;;5019995;28;20518;-53
2023/04/02 04:23:49;;;;;;;9.55;6.32;;;;;;;;;;5025918;28;20099;-55
2023/04/02 04:26:23;;;;;;;9.80;6.85;;;;;;;;;;5025110;28;20527;-54
2023/04/02 04:29:08;;;;;;;10.13;6.73;;;;;;;;;;5024047;28;20078;-54
2023/04/02 04:31:48;;;;;;;7.82;5.25;;;;;;;;;;5006116;28;20051;-54
2023/04/02 04:34:20;;;;;;;10.85;5.60;;;;;;;;;;5024008;28;20050;-53
2023/04/02 04:36:53;;;;;;;9.48;5.90;;;;;;;;;;5023881;28;20068;-51
2023/04/02 04:39:39;;;;;;;8.32;5.05;;;;;;;;;;5021781;28;20060;-53
2023/04/02 04:42:06;;;;;;;6.85;5.32;;;;;;;;;;5025352;28;20046;-51
2023/04/02 04:44:42;;;;;;;7.97;5.65;;;;;;;;;;5023858;28;20109;-53
2023/04/02 04:47:08;;;;;;;;;;;;;;;;;;5025447;28;20101;-51
2023/04/02 04:49:37;;;;;;;8.50;5.88;;;;;;;;;;5023239;28;45660;-53
2023/04/02 04:52:18;;;;;;;8.95;5.10;;;;;;;;;;5024828;28;20056;-51
2023/04/02 04:54:45;;;;;;;7.57;5.32;;;;;;;;;;5025763;28;20054;-54
2023/04/02 04:57:30;;;;;;;6.70;5.00;;;;;;;;;;5024277;28;20052;-54
2023/04/02 05:00:26;;;;;;;8.55;5.30;;;;;;;;;;5022207;28;20053;-53
2023/04/02 05:03:03;;;;;;;6.63;4.35;;;;;;;;;;5002330;28;20176;-52
2023/04/02 05:05:32;;;;;;;8.55;3.70;;;;;;;;;;5024512;28;20050;-55
2023/04/02 05:08:10;;;;;;;6.70;3.05;;;;;;;;;;5022526;28;20046;-54
2023/04/02 05:10:42;;;;;;;6.53;2.70;;;;;;;;;;5025125;28;20512;-56
2023/04/02 05:13:30;;;;;;;5.97;3.05;;;;;;;;;;5023464;28;20903;-52
2023/04/02 05:16:03;;;;;;;6.70;2.83;;;;;;;;;;5022442;28;20058;-55
2023/04/02 05:18:41;;;;;;;5.80;2.95;;;;;;;;;;5021293;28;20061;-53
2023/04/02 05:21:07;;;;;;;7.75;2.70;;;;;;;;;;5022810;28;20054;-55
2023/04/02 05:23:36;;;;;;;5.55;2.60;;;;;;;;;;5024571;28;20058;-53
2023/04/02 05:26:11;;;;;;;6.35;2.90;;;;;;;;;;5022954;28;20058;-52
2023/04/02 05:28:42;;;;;;;6.95;3.33;;;;;;;;;;5022033;28;20476;-50
2023/04/02 05:31:11;;;;;;;5.30;3.00;;;;;;;;;;5017967;28;20058;-50
2023/04/02 05:33:38;;;;;;;5.45;2.85;;;;;;;;;;5023699;28;20061;-55
2023/04/02 05:36:06;;;;;;;5.45;3.10;;;;;;;;;;5021527;28;20056;-53
2023/04/02 05:38:37;;;;;;;8.52;3.10;;;;;;;;;;5024546;28;20042;-51
2023/04/02 05:41:07;;;;;;;4.78;2.80;;;;;;;;;;5019456;28;20054;-53
2023/04/02 05:43:35;;;;;;;7.95;2.97;;;;;;;;;;5021053;28;20062;-52
2023/04/02 05:46:12;;;;;;;6.85;2.95;;;;;;;;;;5023532;28;20050;-52
2023/04/02 05:48:39;;;;;;;4.90;2.80;;;;;;;;;;5022460;28;20050;-52
2023/04/02 05:51:08;;;;;;;8.27;3.03;;;;;;;;;;5022653;28;20092;-54
2023/04/02 05:53:40;;;;;;;4.93;2.40;;;;;;;;;;5022979;28;20050;-54
2023/04/02 05:56:10;;;;;;;4.32;2.60;;;;;;;;;;5020286;28;20532;-54
2023/04/02 05:58:43;;;;;;;8.80;2.72;;;;;;;;;;5025175;28;20057;-54
2023/04/02 06:01:27;;;;;;;6.85;3.20;;;;;;;;;;5020292;28;20053;-53
2023/04/02 06:04:01;;;;;;;7.30;3.10;;;;;;;;;;5024565;28;20053;-55
2023/04/02 06:06:27;;;;;;;6.30;3.40;;;;;;;;;;5024307;28;20713;-53
2023/04/02 06:08:58;;;;;;;6.97;3.63;;;;;;;;;;5023707;28;20054;-53
2023/04/02 06:11:35;;;;;;;4.53;2.67;;;;;;;;;;5006400;28;20077;-54
2023/04/02 06:14:02;;;;;;;5.20;3.10;;;;;;;;;;5025445;28;20578;-52
2023/04/02 06:16:32;;;;;;;5.13;2.92;;;;;;;;;;5040224;28;20912;-54
2023/04/02 06:18:58;;;;;;;5.35;3.75;;;;;;;;;;5025122;28;20085;-52
2023/04/02 06:21:25;;;;;;;7.20;3.40;;;;;;;;;;5025529;28;20168;-53
2023/04/02 06:23:57;;;;;;;6.38;3.90;;;;;;;;;;5027545;28;20057;-49
2023/04/02 06:26:26;;;;;;;7.07;3.58;;;;;;;;;;5026902;28;20460;-54
2023/04/02 06:29:02;;;;;;;6.45;3.53;;;;;;;;;;5010441;28;20062;-54
2023/04/02 06:31:35;;;;;;;6.53;3.70;;;;;;;;;;5025249;28;20443;-54
2023/04/02 06:34:02;;;;;;;4.82;3.55;;;;;;;;;;5026970;28;20519;-53
2023/04/02 06:36:29;;;;;;;8.13;4.00;;;;;;;;;;5027520;28;20076;-52
2023/04/02 06:38:57;;;;;;;6.97;3.97;;;;;;;;;;5025431;28;20100;-53
2023/04/02 06:41:24;;;;;;;8.38;4.00;;;;;;;;;;5026687;28;20192;-55
2023/04/02 06:43:54;;;;;;;6.30;4.32;;;;;;;;;;5018957;28;20148;-55
2023/04/02 06:46:21;;;;;;;7.55;4.57;;;;;;;;;;5026807;28;20054;-54
2023/04/02 06:48:49;;;;;;;7.65;3.90;;;;;;;;;;5026748;28;20069;-56
2023/04/02 06:51:17;;;;;;;8.95;4.68;;;;;;;;;;5026447;28;20474;-53
2023/04/02 06:53:45;;;;;;;8.35;4.80;;;;;;;;;;5024814;28;20052;-54
2023/04/02 06:56:30;;;;;;;5.22;4.38;;;;;;;;;;5025831;28;20125;-55
2023/04/02 06:58:57;;;;;;;8.50;4.90;;;;;;;;;;5025905;28;20100;-55
2023/04/02 07:01:27;;;;;;;9.25;4.78;;;;;;;;;;5026559;28;20499;-52
2023/04/02 07:03:54;;;;;;;7.68;4.93;;;;;;;;;;5024518;28;20060;-54
2023/04/02 07:06:21;;;;;;;6.88;5.10;;;;;;;;;;5026059;28;20089;-54
2023/04/02 07:08:47;;;;;;;7.20;4.43;;;;;;;;;;5026913;28;20050;-51
2023/04/02 07:11:16;;;;;;;10.88;5.15;;;;;;;;;;5022453;28;20054;-51
2023/04/02 07:13:46;;;;;;;7.22;4.93;;;;;;;;;;5025160;28;20102;-53
2023/04/02 07:16:17;;;;;;;7.10;4.78;;;;;;;;;;5026713;28;20054;-55
2023/04/02 07:18:44;;;;;;;10.52;5.30;;;;;;;;;;5026368;28;20054;-52
2023/04/02 07:21:11;;;;;;;7.05;5.35;;;;;;;;;;5026207;28;20536;-53
2023/04/02 07:23:37;;;;;;;8.48;4.70;;;;;;;;;;5041393;28;20054;-52
2023/04/02 07:26:05;;;;;;;6.78;5.10;;;;;;;;;;5025104;28;20050;-52
2023/04/02 07:28:32;;;;;;;5.93;4.65;;;;;;;;;;5006545;28;20258;-50
2023/04/02 07:30:59;;;;;;;6.75;4.03;;;;;;;;;;5019115;28;20054;-52
2023/04/02 07:33:27;;;;;;;8.93;5.18;;;;;;;;;;5025891;28;20046;-52
2023/04/02 07:35:55;;;;;;;5.50;4.13;;;;;;;;;;5027097;28;20061;-53
2023/04/02 07:38:21;;;;;;;5.13;4.22;;;;;;;;;;5025821;28;20109;-49
2023/04/02 07:40:48;;;;;;;5.70;4.18;;;;;;;;;;5022692;28;20046;-52
2023/04/02 07:43:14;;;;;;;5.85;4.70;;;;;;;;;;5040065;28;20066;-52
2023/04/02 07:45:41;;;;;;;7.93;5.03;;;;;;;;;;5026157;28;20105;-54
2023/04/02 07:48:09;;;;;;;8.07;4.57;;;;;;;;;;5022313;28;20057;-51
2023/04/02 07:50:35;;;;;;;5.82;4.00;;;;;;;;;;5026008;28;20173;-52
2023/04/02 07:53:02;;;;;;;5.45;3.78;;;;;;;;;;5007811;28;20057;-53
2023/04/02 07:55:28;;;;;;;9.07;4.28;;;;;;;;;;5026607;28;20519;-55
2023/04/02 07:57:56;;;;;;;6.32;4.25;;;;;;;;;;5033144;28;20064;-51
2023/04/02 08:00:23;;;;;;;5.70;3.88;;;;;;;;;;5033341;28;20050;-56
2023/04/02 08:02:50;;;;;;;4.53;3.72;;;;;;;;;;5003710;28;20108;-53
2023/04/02 08:05:16;;;;;;;8.10;4.38;;;;;;;;;;5024052;28;20512;-54
2023/04/02 08:07:43;;;;;;;5.88;4.22;;;;;;;;;;5023431;28;20054;-51
2023/04/02 08:10:10;;;;;;;10.32;4.68;;;;;;;;;;5025129;28;20050;-55
2023/04/02 08:12:37;;;;;;;7.75;4.72;;;;;;;;;;5026324;28;20052;-53
2023/04/02 08:15:05;;;;;;;5.35;3.97;;;;;;;;;;5026532;28;20133;-54
2023/04/02 08:17:32;;;;;;;7.78;4.40;;;;;;;;;;5026462;28;20061;-50
2023/04/02 08:20:03;;;;;;;7.45;4.95;;;;;;;;;;5025435;28;20570;-52
2023/04/02 08:22:29;;;;;;;8.77;6.05;;;;;;;;;;5025527;28;20537;-53
2023/04/02 08:24:56;;;;;;;6.13;4.70;;;;;;;;;;5025995;28;20050;-51
2023/04/02 08:27:22;;;;;;;8.48;5.72;;;;;;;;;;5025221;28;20048;-55
2023/04/02 08:29:49;;;;;;;6.40;5.03;;;;;;;;;;5022708;28;20058;-51
2023/04/02 08:32:16;;;;;;;6.53;5.63;;;;;;;;;;5025480;28;20120;-51
2023/04/02 08:34:42;;;;;;;8.57;5.28;;;;;;;;;;5023587;28;20061;-51
2023/04/02 08:37:10;;;;;;;8.30;5.90;;;;;;;;;;5024083;28;20054;-53
2023/04/02 08:39:36;;;;;;;11.07;5.90;;;;;;;;;;5024971;28;20050;-53
2023/04/02 08:42:18;;;;;;;7.65;5.10;;;;;;;;;;5025374;28;20061;-55
2023/04/02 08:44:52;;;;;;;6.90;5.75;;;;;;;;;;5024579;28;20065;-52
2023/04/02 08:47:22;;;;;;;7.30;6.60;;;;;;;;;;5024911;28;20054;-55
2023/04/02 08:50:00;;;;;;;12.35;7.45;;;;;;;;;;5018288;28;20049;-52
2023/04/02 08:52:30;;;;;;;9.27;6.38;;;;;;;;;;5025263;28;20655;-55
2023/04/02 08:54:59;;;;;;;7.30;6.57;;;;;;;;;;5022599;28;20058;-54
2023/04/02 08:57:31;;;;;;;8.57;6.30;;;;;;;;;;5023419;28;20112;-55
2023/04/02 09:00:21;;;;;;;8.27;7.47;;;;;;;;;;5006120;28;20054;-54
2023/04/02 09:02:59;;;;;;;8.95;6.38;;;;;;;;;;4993284;28;20060;-53
2023/04/02 09:05:27;;;;;;;11.05;6.65;;;;;;;;;;5029381;28;20057;-55
2023/04/02 09:07:55;;;;;;;8.13;6.80;;;;;;;;;;5045695;28;20046;-55
2023/04/02 09:10:24;;;;;;;6.13;5.53;;;;;;;;;;5019647;28;20054;-53
2023/04/02 09:12:51;;;;;;;9.02;5.25;;;;;;;;;;5023345;28;20414;-56
2023/04/02 09:15:22;;;;;;;6.95;4.75;;;;;;;;;;5020456;28;20121;-54
2023/04/02 09:17:51;;;;;;;8.77;5.25;;;;;;;;;;5020954;28;20054;-56
2023/04/02 09:20:22;;;;;;;7.10;3.60;;;;;;;;;;5025237;28;20054;-52
2023/04/02 09:22:50;;;;;;;4.00;3.33;;;;;;;;;;5025489;28;20593;-54
2023/04/02 09:25:18;;;;;;;8.05;3.28;;;;;;;;;;5023805;28;20829;-55
2023/04/02 09:27:46;;;;;;;5.70;2.80;;;;;;;;;;5024657;28;20060;-56
2023/04/02 09:30:31;;;;;;;3.97;2.70;;;;;;;;;;5025265;28;20092;-53
2023/04/02 09:33:00;;;;;;;3.80;2.42;;;;;;;;;;5025864;28;20058;-55
2023/04/02 09:35:28;;;;;;;6.97;2.38;;;;;;;;;;5016304;28;20061;-54
2023/04/02 09:38:10;;;;;;;4.97;2.70;;;;;;;;;;5021445;28;20053;-50
2023/04/02 09:40:49;;;;;;;6.22;2.60;;;;;;;;;;5022482;28;20042;-51
2023/04/02 09:43:25;;;;;;;5.13;2.72;;;;;;;;;;5015784;28;20054;-55
2023/04/02 09:45:59;;;;;;;4.35;2.47;;;;;;;;;;5019283;28;20104;-53
2023/04/02 09:48:29;;;;;;;9.27;2.60;;;;;;;;;;5023175;28;20511;-57
2023/04/02 09:51:11;;;;;;;4.75;2.35;;;;;;;;;;5025645;28;20089;-56
2023/04/02 09:53:48;;;;;;;4.63;2.05;;;;;;;;;;5027162;28;20042;-55
2023/04/02 09:56:22;;;;;;;2.88;1.92;;;;;;;;;;5027445;28;20550;-55
2023/04/02 09:59:02;;;;;;;2.83;2.00;;;;;;;;;;5027385;28;20042;-54
2023/04/02 10:01:31;;;;;;;5.07;2.35;;;;;;;;;;5028197;28;20046;-56
2023/04/02 10:03:59;;;;;;;5.75;2.25;;;;;;;;;;5028182;28;20141;-55
2023/04/02 10:06:29;;;;;;;3.25;2.00;;;;;;;;;;5028306;28;20054;-54
2023/04/02 10:08:56;;;;;;;5.03;2.78;;;;;;;;;;5026876;28;20061;-54
2023/04/02 10:11:28;;;;;;;4.22;2.35;;;;;;;;;;5008750;28;20540;-55
2023/04/02 10:14:15;;;;;;;3.78;2.22;;;;;;;;;;5028590;28;20054;-54
2023/04/02 10:16:49;;;;;;;3.85;2.42;;;;;;;;;;5026869;28;20417;-53
2023/04/02 10:19:31;;;;;;;5.63;2.45;;;;;;;;;;5025834;28;20042;-56
2023/04/02 10:21:59;;;;;;;9.00;2.67;;;;;;;;;;5025578;28;20464;-55
2023/04/02 10:24:26;;;;;;;3.45;2.35;;;;;;;;;;5027175;28;20526;-54
2023/04/02 10:27:16;;;;;;;3.25;2.00;;;;;;;;;;5026670;28;20054;-53
2023/04/02 10:30:01;;;;;;;4.88;2.20;;;;;;;;;;5027228;28;20061;-53
2023/04/02 10:32:33;;;;;;;7.38;2.95;;;;;;;;;;5027251;28;20058;-51
2023/04/02 10:35:02;;;;;;;4.15;2.35;;;;;;;;;;5027223;28;20582;-50
2023/04/02 10:37:47;;;;;;;4.60;2.58;;;;;;;;;;5026052;28;20208;-55
2023/04/02 10:40:14;;;;;;;4.82;2.70;;;;;;;;;;5027455;28;20056;-55
2023/04/02 10:42:50;;;;;;;7.50;2.97;;;;;;;;;;5026708;28;20580;-52
2023/04/02 10:45:19;;;;;;;4.60;2.65;;;;;;;;;;5026850;28;20050;-52
2023/04/02 10:48:08;;;;;;;6.78;2.92;;;;;;;;;;5026467;28;20534;-54
2023/04/02 10:50:58;;;;;;;3.95;2.42;;;;;;;;;;5014429;28;20054;-55
2023/04/02 10:53:37;;;;;;;6.35;2.85;;;;;;;;;;4945274;28;20052;-55
2023/04/02 10:56:07;;;;;;;5.40;2.25;;;;;;;;;;4945725;28;20052;-55
2023/04/02 10:58:36;;;;;;;4.40;2.38;;;;;;;;;;4945355;28;20062;-55
2023/04/02 11:01:12;;;;;;;5.15;2.20;;;;;;;;;;4946440;28;20461;-56
2023/04/02 11:03:43;;;;;;;3.42;2.00;;;;;;;;;;4952543;28;20172;-58
2023/04/02 11:06:14;;;;;;;4.25;2.08;;;;;;;;;;4944365;28;20083;-59
2023/04/02 11:08:42;;;;;;;4.50;2.28;;;;;;;;;;4940914;28;20055;-56
2023/04/02 11:11:11;;;;;;;6.30;2.60;;;;;;;;;;4945455;28;20056;-51
2023/04/02 11:13:52;;;;;;;3.60;2.00;;;;;;;;;;4944257;28;20059;-55
2023/04/02 11:16:19;;;;;;;5.05;1.90;;;;;;;;;;4946258;28;20095;-56
2023/04/02 11:19:05;;;;;;;5.00;1.95;;;;;;;;;;4943891;28;20502;-57
2023/04/02 11:21:34;;;;;;;3.65;2.20;;;;;;;;;;4941020;28;20471;-54
2023/04/02 11:24:01;;;;;;;4.07;2.35;;;;;;;;;;4939032;28;20534;-51
2023/04/02 11:26:30;;;;;;;3.78;2.22;;;;;;;;;;4946074;28;20059;-54
2023/04/02 11:29:00;;;;;;;2.60;2.17;;;;;;;;;;4945745;28;20619;-52
2023/04/02 11:31:27;;;;;;;5.13;2.20;;;;;;;;;;5014965;28;20133;-56
2023/04/02 11:33:53;;;;;;;4.32;2.50;;;;;;;;;;5026695;28;20050;-53
2023/04/02 11:36:38;;;;;;;4.70;2.60;;;;;;;;;;5025637;28;20524;-55
2023/04/02 11:39:08;;;;;;;5.10;2.57;;;;;;;;;;5021880;28;20053;-54
2023/04/02 11:42:01;;;;;;;4.35;2.40;;;;;;;;;;5026195;28;20048;-57
2023/04/02 11:44:28;;;;;;;6.13;2.20;;;;;;;;;;5024841;28;20153;-55
2023/04/02 11:47:20;;;;;;;4.47;2.50;;;;;;;;;;5025352;28;20141;-55
2023/04/02 11:49:53;;;;;;;4.20;2.33;;;;;;;;;;5020422;28;20054;-56
2023/04/02 11:52:21;;;;;;;5.95;2.30;;;;;;;;;;5025462;28;20054;-53
2023/04/02 11:55:17;;;;;;;7.50;3.47;;;;;;;;;;5025112;28;20054;-57
2023/04/02 11:58:00;;;;;;;3.53;2.67;;;;;;;;;;4944167;28;20123;-56
2023/04/02 12:00:52;;;;;;;3.17;2.22;;;;;;;;;;4940454;28;20052;-57
2023/04/02 12:03:37;;;;;;;3.08;2.20;;;;;;;;;;4925276;28;20159;-58
2023/04/02 12:06:24;;;;;;;4.13;2.40;;;;;;;;;;4943514;28;20055;-55
2023/04/02 12:09:17;;;;;;;3.75;2.20;;;;;;;;;;4938632;28;20062;-55
2023/04/02 12:11:44;;;;;;;5.93;2.58;;;;;;;;;;4938627;28;20075;-55
2023/04/02 12:14:29;;;;;;;4.63;2.50;;;;;;;;;;4940095;28;20140;-54
2023/04/02 12:16:55;;;;;;;6.05;2.47;;;;;;;;;;4942254;28;20059;-39
2023/04/02 12:19:23;;;;;;;6.05;2.40;;;;;;;;;;4945052;28;20111;-55
2023/04/02 12:21:51;;;;;;;4.22;2.10;;;;;;;;;;4944172;28;20056;-51
2023/04/02 12:24:19;;;;;;;2.90;2.35;;;;;;;;;;4929907;28;20552;-52
2023/04/02 12:26:46;;;;;;;5.72;2.30;;;;;;;;;;4943360;28;20051;-52
2023/04/02 12:29:13;;;;;;;2.53;1.95;;;;;;;;;;4945538;28;20068;-53
2023/04/02 12:31:41;;;;;;;6.05;2.00;;;;;;;;;;4943822;28;20055;-56
2023/04/02 12:34:12;;;;;;;4.13;2.30;;;;;;;;;;4977520;28;20373;-55
2023/04/02 12:36:39;;;;;;;4.20;1.85;;;;;;;;;;5023869;28;20058;-52
2023/04/02 12:39:14;;;;;;;3.20;2.00;;;;;;;;;;5025611;28;20579;-54
2023/04/02 12:41:40;;;;;;;2.85;2.00;;;;;;;;;;5023798;28;20046;-56
2023/04/02 12:44:15;;;;;;;2.22;1.65;;;;;;;;;;5023225;28;20512;-55
2023/04/02 12:46:42;;;;;;;3.85;1.80;;;;;;;;;;5025532;28;20050;-55
2023/04/02 12:49:19;;;;;;;2.85;1.70;;;;;;;;;;5023859;28;20049;-55
2023/04/02 12:51:46;;;;;;;4.07;1.83;;;;;;;;;;5026047;28;20167;-57
2023/04/02 12:54:16;;;;;;;3.72;1.85;;;;;;;;;;5021191;28;20129;-57
2023/04/02 12:56:43;;;;;;;3.65;1.63;;;;;;;;;;5025659;28;20053;-55
2023/04/02 12:59:26;;;;;;;2.63;1.70;;;;;;;;;;5025933;28;20061;-56
2023/04/02 13:01:57;;;;;;;2.65;1.65;;;;;;;;;;5023539;28;20054;-54
2023/04/02 13:04:25;;;;;;;2.25;1.60;;;;;;;;;;5021257;28;20574;-59
2023/04/02 13:06:53;;;;;;;2.85;1.63;;;;;;;;;;5025742;28;20064;-56
2023/04/02 13:09:26;;;;;;;1.58;1.38;;;;;;;;;;5022399;28;20502;-56
2023/04/02 13:11:54;;;;;;;2.40;1.67;;;;;;;;;;5021017;28;20112;-55
2023/04/02 13:14:22;;;;;;;2.92;1.80;;;;;;;;;;5024940;28;20049;-56
2023/04/02 13:16:48;;;;;;;3.55;1.80;;;;;;;;;;5041327;28;20161;-53
2023/04/02 13:19:24;;;;;;;3.90;1.70;;;;;;;;;;5036860;28;20050;-52
2023/04/02 13:21:51;;;;;;;3.22;1.60;;;;;;;;;;5023516;28;20814;-57
2023/04/02 13:24:22;;;;;;;4.20;1.83;;;;;;;;;;5006517;28;20508;-53
2023/04/02 13:26:49;;;;;;;3.65;1.48;;;;;;;;;;5025021;28;20061;-57
2023/04/02 13:29:28;;;;;;;2.30;1.48;;;;;;;;;;5023835;28;20475;-54
2023/04/02 13:31:57;;;;;;;2.97;1.55;;;;;;;;;;5024227;28;20119;-53
2023/04/02 13:34:24;;;;;;;2.60;1.40;;;;;;;;;;5023942;28;20050;-56
2023/04/02 13:36:51;;;;;;;3.20;1.80;;;;;;;;;;5022818;28;20046;-54
2023/04/02 13:39:19;;;;;;;2.70;1.52;;;;;;;;;;5031057;28;20393;-56
2023/04/02 13:42:05;;;;;;;5.30;1.83;;;;;;;;;;5024176;28;20045;-58
2023/04/02 13:44:32;;;;;;;2.63;1.40;;;;;;;;;;5031981;28;20054;-54
2023/04/02 13:46:59;;;;;;;1.92;1.52;;;;;;;;;;5020738;28;20061;-56
2023/04/02 13:49:26;;;;;;;2.65;1.48;;;;;;;;;;5002816;28;20060;-55
2023/04/02 13:51:56;;;;;;;3.95;1.40;;;;;;;;;;5021683;28;20081;-57
2023/04/02 13:54:26;;;;;;;9.77;1.67;;;;;;;;;;5018702;28;20054;-55
2023/04/02 13:56:54;;;;;;;3.53;1.35;;;;;;;;;;5005126;28;20547;-55
2023/04/02 13:59:21;;;;;;;4.18;1.50;;;;;;;;;;5016963;28;20054;-53
2023/04/02 14:01:49;;;;;;;3.28;1.55;;;;;;;;;;5014599;28;20512;-54
2023/04/02 14:04:21;;;;;;;2.17;1.40;;;;;;;;;;5021280;28;20052;-55
2023/04/02 14:07:05;;;;;;;4.78;1.63;;;;;;;;;;5023037;28;20084;-36
2023/04/02 14:09:31;;;;;;;4.47;1.65;;;;;;;;;;5012246;28;20540;-53
2023/04/02 14:12:04;;;;;;;2.40;1.33;;;;;;;;;;5022723;28;20054;-54
2023/04/02 14:14:30;;;;;;;2.60;1.40;;;;;;;;;;5020294;28;20123;-55
2023/04/02 14:17:17;;;;;;;5.97;1.42;;;;;;;;;;5021204;28;20054;-56
2023/04/02 14:20:22;;;;;;;2.40;1.20;;;;;;;;;;5004131;28;20598;-55
2023/04/02 14:22:54;;;;;;;1.60;1.50;;;;;;;;;;4923895;28;20598;-55
2023/04/02 14:25:35;;;;;;;2.10;1.45;;;;;;;;;;4924124;29;20052;-57
2023/04/02 14:28:05;;;;;;;2.47;1.42;;;;;;;;;;4923863;28;20049;-52
2023/04/02 14:30:39;;;;;;;2.10;1.25;;;;;;;;;;4923742;29;20060;-53
2023/04/02 14:33:20;;;;;;;3.90;1.60;;;;;;;;;;4924164;29;20056;-54
2023/04/02 14:35:52;;;;;;;1.52;1.42;;;;;;;;;;4926036;28;20834;-56
2023/04/02 14:38:21;;;;;;;3.75;1.55;;;;;;;;;;4925870;28;20395;-54
2023/04/02 14:41:07;;;;;;;3.25;1.55;;;;;;;;;;4927378;29;20064;-56
2023/04/02 14:43:40;;;;;;;1.98;1.30;;;;;;;;;;4925690;29;20060;-56
2023/04/02 14:46:08;;;;;;;2.10;1.40;;;;;;;;;;4934147;28;20123;-53
2023/04/02 14:48:44;;;;;;;3.58;1.60;;;;;;;;;;4926959;29;20152;-53
2023/04/02 14:51:14;;;;;;;5.57;1.58;;;;;;;;;;4927955;29;20087;-56
2023/04/02 14:53:57;;;;;;;4.93;1.40;;;;;;;;;;4977213;28;20057;-56
2023/04/02 14:56:24;;;;;;;2.25;1.10;;;;;;;;;;5028007;28;20508;-54
2023/04/02 14:59:06;;;;;;;4.55;1.60;;;;;;;;;;5026489;28;20080;-57
2023/04/02 15:01:36;;;;;;;3.13;1.67;;;;;;;;;;5027580;28;20085;-55
2023/04/02 15:04:09;;;;;;;3.22;1.58;;;;;;;;;;5027920;28;20529;-54
2023/04/02 15:06:37;;;;;;;3.30;1.50;;;;;;;;;;5027279;28;20058;-54
2023/04/02 15:09:13;;;;;;;2.35;1.30;;;;;;;;;;5023091;28;20132;-56